Superferry II — SWKV — position and weather

sailwx.info

Track history (hours):
 
Tides and Currents Weather Stations Pressure Air Temp Water Temp Dewpoint Dewpoint Depression Visibility Wind Speed Wind Dir Waves Ship Positions

Superferry II

Last reported at 2016-Oct-01 04:33 UTC. Time now 2016-Oct-01 05:00 UTC.
Position N 37°28' E 025°20'.

Length 122 m; draft 4.7 m.

Type: Passenger vessel. MMSI: 237001000.

Date/timePositionNaut miles runAvg speedWind from/ knotsBaromVisibWave heightAir tempDewpointWater temp
2016-Oct-01 04:33N 37°28' E 025°20'0 0.0
2016-Oct-01 03:33N 37°28' E 025°20'0 0.0
2016-Oct-01 00:33N 37°28' E 025°20'0 0.0
2016-Sep-30 22:33N 37°28' E 025°20'0 0.0
2016-Sep-30 20:33N 37°28' E 025°20'13 4.3
2016-Sep-30 17:33N 37°34' E 025°05'1918.8
2016-Sep-30 16:34N 37°47' E 024°49'3114.9
2016-Sep-30 14:29N 37°59' E 024°12'10 1.6
2016-Sep-30 08:29N 38°01' E 024°01'7114.3
2016-Sep-30 03:33N 37°28' E 025°19'0 0.0
2016-Sep-30 02:33N 37°28' E 025°19'0 0.0
2016-Sep-29 23:33N 37°28' E 025°19'0 0.0
2016-Sep-29 21:33N 37°28' E 025°19'0 0.0
2016-Sep-29 20:33N 37°28' E 025°19'0 0.0
2016-Sep-29 19:33N 37°28' E 025°19'3010.1
2016-Sep-29 16:34N 37°46' E 024°49'3215.2
2016-Sep-29 14:26N 37°59' E 024°12'8 1.3
2016-Sep-29 08:28N 38°01' E 024°02'70 8.9
2016-Sep-29 00:34N 37°28' E 025°20'0 0.0
2016-Sep-28 21:33N 37°28' E 025°20'0 0.0
2016-Sep-28 19:33N 37°28' E 025°20'3110.3
2016-Sep-28 16:33N 37°47' E 024°49'41 9.8
2016-Sep-28 12:24N 38°01' E 024°01'1 0.2
2016-Sep-28 08:26N 38°01' E 024°02'7014.3
2016-Sep-28 03:33N 37°28' E 025°19'0 0.0
2016-Sep-28 02:34N 37°28' E 025°19'0 0.0
2016-Sep-28 01:33N 37°28' E 025°19'0 0.0
2016-Sep-27 23:33N 37°28' E 025°19'0 0.0
2016-Sep-27 19:33N 37°28' E 025°19'6112.0
2016-Sep-27 14:27N 37°59' E 024°12'61 4.4
2016-Sep-27 00:27N 37°28' E 025°20'0 0.0
2016-Sep-26 20:27N 37°28' E 025°20'0 0.0
2016-Sep-26 19:33N 37°28' E 025°20'70 6.4
2016-Sep-26 08:28N 38°01' E 024°01'7011.9
2016-Sep-26 02:34N 37°28' E 025°19'0 0.0
2016-Sep-26 01:34N 37°28' E 025°19'0 0.0
2016-Sep-26 00:33N 37°28' E 025°19'56 7.9
2016-Sep-25 17:34N 37°57' E 024°20'1918.7
2016-Sep-25 16:32N 37°52' E 024°43'2914.5
2016-Sep-25 14:33N 37°32' E 025°09'9 4.3
2016-Sep-25 12:22N 37°28' E 025°20'0 0.0
2016-Sep-25 11:28N 37°28' E 025°20'0 0.0
2016-Sep-25 10:31N 37°28' E 025°20'0 0.0
2016-Sep-25 09:33N 37°28' E 025°20'0 0.0
2016-Sep-25 07:30N 37°28' E 025°20'0 0.0
2016-Sep-25 04:11N 37°28' E 025°20'0 0.0
2016-Sep-25 00:33N 37°28' E 025°20'0 0.0
2016-Sep-24 22:33N 37°28' E 025°20'0 0.0
2016-Sep-24 21:32N 37°28' E 025°20'0 0.0
2016-Sep-24 19:32N 37°28' E 025°20'0 0.1
2016-Sep-24 18:33N 37°28' E 025°20'3115.5
2016-Sep-24 16:33N 37°47' E 024°49'3115.2
2016-Sep-24 14:30N 37°59' E 024°13'45 9.2
2016-Sep-24 09:33N 37°36' E 025°02'55 9.1
2016-Sep-24 03:33N 38°01' E 024°01'0 0.0
2016-Sep-24 02:33N 38°01' E 024°01'0 0.0
2016-Sep-24 01:33N 38°01' E 024°01'0 0.0
2016-Sep-24 00:33N 38°01' E 024°01'0 0.0
2016-Sep-23 19:33N 38°01' E 024°01'0 0.0
2016-Sep-23 17:33N 38°01' E 024°01'0 0.0
2016-Sep-23 16:33N 38°01' E 024°01'62 5.1
2016-Sep-23 04:33N 37°32' E 025°09'9 9.2
2016-Sep-23 03:33N 37°28' E 025°19'0 0.0
2016-Sep-23 02:33N 37°28' E 025°19'0 0.0
2016-Sep-23 01:33N 37°28' E 025°19'0 0.0
2016-Sep-23 00:33N 37°28' E 025°19'0 0.0
2016-Sep-22 23:33N 37°28' E 025°19'0 0.0
2016-Sep-22 20:33N 37°28' E 025°19'0 0.0
2016-Sep-22 12:33N 37°28' E 025°19'0 0.0
2016-Sep-22 04:33N 37°28' E 025°19'0 0.0
2016-Sep-22 03:33N 37°28' E 025°19'0 0.0
2016-Sep-22 00:33N 37°28' E 025°19'0 0.0
2016-Sep-21 23:34N 37°28' E 025°19'0 0.0
2016-Sep-21 22:33N 37°28' E 025°19'0 0.0
2016-Sep-21 19:33N 37°28' E 025°19'3210.6
2016-Sep-21 16:33N 37°48' E 024°48'40 4.9
2016-Sep-21 08:32N 38°01' E 024°01'  
Track history (hours):
 
Tides and Currents Weather Stations Pressure Air Temp Water Temp Dewpoint Dewpoint Depression Visibility Wind Speed Wind Dir Waves Ship Positions

Superferry II

Last reported at 2016-Oct-01 04:33 UTC. Time now 2016-Oct-01 05:00 UTC.
Position N 37°28' E 025°20'.

Length 122 m; draft 4.7 m.

Type: Passenger vessel. MMSI: 237001000.

Date/timePositionNaut miles runAvg speedWind from/ knotsBaromVisibWave heightAir tempDewpointWater temp
2016-Oct-01 04:33N 37°28' E 025°20'0 0.0
2016-Oct-01 03:33N 37°28' E 025°20'0 0.0
2016-Oct-01 00:33N 37°28' E 025°20'0 0.0
2016-Sep-30 22:33N 37°28' E 025°20'0 0.0
2016-Sep-30 20:33N 37°28' E 025°20'13 4.3
2016-Sep-30 17:33N 37°34' E 025°05'1918.8
2016-Sep-30 16:34N 37°47' E 024°49'3114.9
2016-Sep-30 14:29N 37°59' E 024°12'10 1.6
2016-Sep-30 08:29N 38°01' E 024°01'7114.3
2016-Sep-30 03:33N 37°28' E 025°19'0 0.0
2016-Sep-30 02:33N 37°28' E 025°19'0 0.0
2016-Sep-29 23:33N 37°28' E 025°19'0 0.0
2016-Sep-29 21:33N 37°28' E 025°19'0 0.0
2016-Sep-29 20:33N 37°28' E 025°19'0 0.0
2016-Sep-29 19:33N 37°28' E 025°19'3010.1
2016-Sep-29 16:34N 37°46' E 024°49'3215.2
2016-Sep-29 14:26N 37°59' E 024°12'8 1.3
2016-Sep-29 08:28N 38°01' E 024°02'70 8.9
2016-Sep-29 00:34N 37°28' E 025°20'0 0.0
2016-Sep-28 21:33N 37°28' E 025°20'0 0.0
2016-Sep-28 19:33N 37°28' E 025°20'3110.3
2016-Sep-28 16:33N 37°47' E 024°49'41 9.8
2016-Sep-28 12:24N 38°01' E 024°01'1 0.2
2016-Sep-28 08:26N 38°01' E 024°02'7014.3
2016-Sep-28 03:33N 37°28' E 025°19'0 0.0
2016-Sep-28 02:34N 37°28' E 025°19'0 0.0
2016-Sep-28 01:33N 37°28' E 025°19'0 0.0
2016-Sep-27 23:33N 37°28' E 025°19'0 0.0
2016-Sep-27 19:33N 37°28' E 025°19'6112.0
2016-Sep-27 14:27N 37°59' E 024°12'61 4.4
2016-Sep-27 00:27N 37°28' E 025°20'0 0.0
2016-Sep-26 20:27N 37°28' E 025°20'0 0.0
2016-Sep-26 19:33N 37°28' E 025°20'70 6.4
2016-Sep-26 08:28N 38°01' E 024°01'7011.9
2016-Sep-26 02:34N 37°28' E 025°19'0 0.0
2016-Sep-26 01:34N 37°28' E 025°19'0 0.0
2016-Sep-26 00:33N 37°28' E 025°19'56 7.9
2016-Sep-25 17:34N 37°57' E 024°20'1918.7
2016-Sep-25 16:32N 37°52' E 024°43'2914.5
2016-Sep-25 14:33N 37°32' E 025°09'9 4.3
2016-Sep-25 12:22N 37°28' E 025°20'0 0.0
2016-Sep-25 11:28N 37°28' E 025°20'0 0.0
2016-Sep-25 10:31N 37°28' E 025°20'0 0.0
2016-Sep-25 09:33N 37°28' E 025°20'0 0.0
2016-Sep-25 07:30N 37°28' E 025°20'0 0.0
2016-Sep-25 04:11N 37°28' E 025°20'0 0.0
2016-Sep-25 00:33N 37°28' E 025°20'0 0.0
2016-Sep-24 22:33N 37°28' E 025°20'0 0.0
2016-Sep-24 21:32N 37°28' E 025°20'0 0.0
2016-Sep-24 19:32N 37°28' E 025°20'0 0.1
2016-Sep-24 18:33N 37°28' E 025°20'3115.5
2016-Sep-24 16:33N 37°47' E 024°49'3115.2
2016-Sep-24 14:30N 37°59' E 024°13'45 9.2
2016-Sep-24 09:33N 37°36' E 025°02'55 9.1
2016-Sep-24 03:33N 38°01' E 024°01'0 0.0
2016-Sep-24 02:33N 38°01' E 024°01'0 0.0
2016-Sep-24 01:33N 38°01' E 024°01'0 0.0
2016-Sep-24 00:33N 38°01' E 024°01'0 0.0
2016-Sep-23 19:33N 38°01' E 024°01'0 0.0
2016-Sep-23 17:33N 38°01' E 024°01'0 0.0
2016-Sep-23 16:33N 38°01' E 024°01'62 5.1
2016-Sep-23 04:33N 37°32' E 025°09'9 9.2
2016-Sep-23 03:33N 37°28' E 025°19'0 0.0
2016-Sep-23 02:33N 37°28' E 025°19'0 0.0
2016-Sep-23 01:33N 37°28' E 025°19'0 0.0
2016-Sep-23 00:33N 37°28' E 025°19'0 0.0
2016-Sep-22 23:33N 37°28' E 025°19'0 0.0
2016-Sep-22 20:33N 37°28' E 025°19'0 0.0
2016-Sep-22 12:33N 37°28' E 025°19'0 0.0
2016-Sep-22 04:33N 37°28' E 025°19'0 0.0
2016-Sep-22 03:33N 37°28' E 025°19'0 0.0
2016-Sep-22 00:33N 37°28' E 025°19'0 0.0
2016-Sep-21 23:34N 37°28' E 025°19'0 0.0
2016-Sep-21 22:33N 37°28' E 025°19'0 0.0
2016-Sep-21 19:33N 37°28' E 025°19'3210.6
2016-Sep-21 16:33N 37°48' E 024°48'40 4.9
2016-Sep-21 08:32N 38°01' E 024°01'  

Dump ship's entire track history